sensor_id;sensor_type;location;lat;lon;timestamp;pressure;altitude;pressure_sealevel;temperature;humidity
47556;BME280;33291;46.222;26.460;2023-05-23T00:00:07;96433.69;;;10.72;70.40
47556;BME280;33291;46.222;26.460;2023-05-23T00:02:32;96432.97;;;10.70;70.00
47556;BME280;33291;46.222;26.460;2023-05-23T00:04:58;96422.19;;;10.65;70.35
47556;BME280;33291;46.222;26.460;2023-05-23T00:07:27;96417.66;;;10.57;70.88
47556;BME280;33291;46.222;26.460;2023-05-23T00:09:53;96418.75;;;10.55;71.26
47556;BME280;33291;46.222;26.460;2023-05-23T00:12:18;96429.75;;;10.48;71.72
47556;BME280;33291;46.222;26.460;2023-05-23T00:14:44;96420.41;;;10.46;71.67
47556;BME280;33291;46.222;26.460;2023-05-23T00:17:10;96418.38;;;10.49;71.53
47556;BME280;33291;46.222;26.460;2023-05-23T00:19:36;96418.53;;;10.48;71.69
47556;BME280;33291;46.222;26.460;2023-05-23T00:22:01;96419.47;;;10.47;71.73
47556;BME280;33291;46.222;26.460;2023-05-23T00:24:27;96416.75;;;10.39;71.89
47556;BME280;33291;46.222;26.460;2023-05-23T00:26:53;96388.66;;;10.23;72.35
47556;BME280;33291;46.222;26.460;2023-05-23T00:29:18;96414.81;;;10.41;72.16
47556;BME280;33291;46.222;26.460;2023-05-23T00:31:45;96393.75;;;10.34;72.15
47556;BME280;33291;46.222;26.460;2023-05-23T00:34:16;96403.19;;;10.35;72.70
47556;BME280;33291;46.222;26.460;2023-05-23T00:36:42;96395.75;;;10.30;72.53
47556;BME280;33291;46.222;26.460;2023-05-23T00:39:12;96398.38;;;10.21;73.15
47556;BME280;33291;46.222;26.460;2023-05-23T00:41:50;96403.03;;;10.17;73.30
47556;BME280;33291;46.222;26.460;2023-05-23T00:44:16;96372.66;;;9.98;73.55
47556;BME280;33291;46.222;26.460;2023-05-23T00:46:47;96398.09;;;10.14;73.71
47556;BME280;33291;46.222;26.460;2023-05-23T00:49:13;96392.22;;;10.12;73.55
47556;BME280;33291;46.222;26.460;2023-05-23T00:51:39;96394.69;;;10.13;73.61
47556;BME280;33291;46.222;26.460;2023-05-23T00:54:07;96393.03;;;10.12;73.75
47556;BME280;33291;46.222;26.460;2023-05-23T00:56:33;96389.50;;;10.04;74.01
47556;BME280;33291;46.222;26.460;2023-05-23T00:58:59;96386.91;;;10.04;73.85
47556;BME280;33291;46.222;26.460;2023-05-23T01:01:25;96365.69;;;9.89;74.12
47556;BME280;33291;46.222;26.460;2023-05-23T01:03:51;96373.34;;;9.90;74.16
47556;BME280;33291;46.222;26.460;2023-05-23T01:06:17;96377.56;;;9.91;74.17
47556;BME280;33291;46.222;26.460;2023-05-23T01:08:43;96397.59;;;10.01;74.25
47556;BME280;33291;46.222;26.460;2023-05-23T01:11:22;96389.22;;;9.97;74.55
47556;BME280;33291;46.222;26.460;2023-05-23T01:14:04;96391.28;;;9.93;74.29
47556;BME280;33291;46.222;26.460;2023-05-23T01:16:35;96397.56;;;9.91;74.44
47556;BME280;33291;46.222;26.460;2023-05-23T01:21:54;96388.94;;;9.90;74.83
47556;BME280;33291;46.222;26.460;2023-05-23T01:29:32;96367.59;;;9.67;75.47
47556;BME280;33291;46.222;26.460;2023-05-23T01:32:00;96377.72;;;9.70;75.54
47556;BME280;33291;46.222;26.460;2023-05-23T01:34:27;96366.34;;;9.62;75.46
47556;BME280;33291;46.222;26.460;2023-05-23T01:36:55;96387.56;;;9.67;75.87
47556;BME280;33291;46.222;26.460;2023-05-23T01:39:21;96382.78;;;9.62;75.75
47556;BME280;33291;46.222;26.460;2023-05-23T01:41:51;96391.94;;;9.66;75.85
47556;BME280;33291;46.222;26.460;2023-05-23T01:44:17;96399.06;;;9.64;75.90
47556;BME280;33291;46.222;26.460;2023-05-23T01:46:43;96402.34;;;9.66;75.96
47556;BME280;33291;46.222;26.460;2023-05-23T01:49:11;96407.28;;;9.69;76.04
47556;BME280;33291;46.222;26.460;2023-05-23T01:51:37;96394.25;;;9.59;76.17
47556;BME280;33291;46.222;26.460;2023-05-23T01:54:03;96401.81;;;9.63;76.15
47556;BME280;33291;46.222;26.460;2023-05-23T01:56:29;96401.09;;;9.60;76.13
47556;BME280;33291;46.222;26.460;2023-05-23T01:58:54;96411.38;;;9.62;76.68
47556;BME280;33291;46.222;26.460;2023-05-23T02:01:20;96403.16;;;9.57;76.48
47556;BME280;33291;46.222;26.460;2023-05-23T02:03:46;96388.22;;;9.39;76.87
47556;BME280;33291;46.222;26.460;2023-05-23T02:06:11;96405.19;;;9.43;76.91
47556;BME280;33291;46.222;26.460;2023-05-23T02:08:37;96408.06;;;9.40;76.92
47556;BME280;33291;46.222;26.460;2023-05-23T02:11:03;96402.44;;;9.35;76.84
47556;BME280;33291;46.222;26.460;2023-05-23T02:13:28;96406.13;;;9.33;77.21
47556;BME280;33291;46.222;26.460;2023-05-23T02:15:54;96399.53;;;9.19;77.84
47556;BME280;33291;46.222;26.460;2023-05-23T02:18:20;96416.75;;;9.20;78.12
47556;BME280;33291;46.222;26.460;2023-05-23T02:20:45;96414.53;;;9.15;78.17
47556;BME280;33291;46.222;26.460;2023-05-23T02:23:11;96395.94;;;9.00;78.11
47556;BME280;33291;46.222;26.460;2023-05-23T02:25:37;96425.06;;;9.14;78.32
47556;BME280;33291;46.222;26.460;2023-05-23T02:28:02;96421.78;;;9.12;78.25
47556;BME280;33291;46.222;26.460;2023-05-23T02:30:28;96415.78;;;9.11;78.09
47556;BME280;33291;46.222;26.460;2023-05-23T02:32:53;96425.78;;;9.16;78.36
47556;BME280;33291;46.222;26.460;2023-05-23T02:35:19;96420.00;;;9.12;78.58
47556;BME280;33291;46.222;26.460;2023-05-23T02:37:45;96406.53;;;8.97;78.62
47556;BME280;33291;46.222;26.460;2023-05-23T02:40:10;96412.47;;;8.99;78.78
47556;BME280;33291;46.222;26.460;2023-05-23T02:42:36;96387.22;;;8.80;78.84
47556;BME280;33291;46.222;26.460;2023-05-23T02:45:01;96407.06;;;8.91;79.47
47556;BME280;33291;46.222;26.460;2023-05-23T02:47:27;96406.94;;;8.93;79.42
47556;BME280;33291;46.222;26.460;2023-05-23T02:49:52;96412.00;;;8.94;79.65
47556;BME280;33291;46.222;26.460;2023-05-23T02:52:18;96407.25;;;8.99;79.84
47556;BME280;33291;46.222;26.460;2023-05-23T02:54:43;96418.34;;;9.01;80.12
47556;BME280;33291;46.222;26.460;2023-05-23T02:57:09;96380.25;;;8.81;80.36
47556;BME280;33291;46.222;26.460;2023-05-23T02:59:34;96404.94;;;8.96;80.25
47556;BME280;33291;46.222;26.460;2023-05-23T03:02:00;96408.06;;;9.00;80.07
47556;BME280;33291;46.222;26.460;2023-05-23T03:04:26;96402.19;;;8.98;80.06
47556;BME280;33291;46.222;26.460;2023-05-23T03:06:51;96397.81;;;8.98;79.58
47556;BME280;33291;46.222;26.460;2023-05-23T03:09:19;96404.25;;;9.04;80.08
47556;BME280;33291;46.222;26.460;2023-05-23T03:11:45;96402.47;;;9.04;79.67
47556;BME280;33291;46.222;26.460;2023-05-23T03:14:11;96409.19;;;9.07;80.04
47556;BME280;33291;46.222;26.460;2023-05-23T03:16:36;96409.47;;;9.14;79.64
47556;BME280;33291;46.222;26.460;2023-05-23T03:19:02;96399.94;;;9.14;79.43
47556;BME280;33291;46.222;26.460;2023-05-23T03:21:29;96410.75;;;9.19;79.42
47556;BME280;33291;46.222;26.460;2023-05-23T03:23:56;96400.47;;;9.18;79.43
47556;BME280;33291;46.222;26.460;2023-05-23T03:26:21;96412.69;;;9.27;79.01
47556;BME280;33291;46.222;26.460;2023-05-23T03:28:48;96408.88;;;9.31;79.06
47556;BME280;33291;46.222;26.460;2023-05-23T03:31:14;96412.84;;;9.35;79.30
47556;BME280;33291;46.222;26.460;2023-05-23T03:33:39;96406.81;;;9.35;79.57
47556;BME280;33291;46.222;26.460;2023-05-23T03:36:05;96408.59;;;9.34;79.53
47556;BME280;33291;46.222;26.460;2023-05-23T03:38:30;96413.78;;;9.34;79.90
47556;BME280;33291;46.222;26.460;2023-05-23T03:40:56;96419.94;;;9.33;79.90
47556;BME280;33291;46.222;26.460;2023-05-23T03:43:21;96413.34;;;9.29;80.72
47556;BME280;33291;46.222;26.460;2023-05-23T03:45:47;96405.69;;;9.28;80.87
47556;BME280;33291;46.222;26.460;2023-05-23T03:48:13;96394.34;;;9.19;80.91
47556;BME280;33291;46.222;26.460;2023-05-23T03:50:38;96407.91;;;9.32;81.14
47556;BME280;33291;46.222;26.460;2023-05-23T03:53:04;96397.75;;;9.29;81.34
47556;BME280;33291;46.222;26.460;2023-05-23T03:55:30;96383.09;;;9.18;81.28
47556;BME280;33291;46.222;26.460;2023-05-23T03:57:56;96379.56;;;9.19;81.04
47556;BME280;33291;46.222;26.460;2023-05-23T04:00:22;96398.19;;;9.34;80.83
47556;BME280;33291;46.222;26.460;2023-05-23T04:02:47;96403.53;;;9.42;80.49
47556;BME280;33291;46.222;26.460;2023-05-23T04:05:14;96400.25;;;9.50;80.68
47556;BME280;33291;46.222;26.460;2023-05-23T04:07:39;96414.25;;;9.59;80.92
47556;BME280;33291;46.222;26.460;2023-05-23T04:10:06;96408.63;;;9.64;80.76
47556;BME280;33291;46.222;26.460;2023-05-23T04:12:32;96409.22;;;9.67;80.73
47556;BME280;33291;46.222;26.460;2023-05-23T04:14:58;96399.88;;;9.74;80.32
47556;BME280;33291;46.222;26.460;2023-05-23T04:17:24;96401.13;;;9.80;80.43
47556;BME280;33291;46.222;26.460;2023-05-23T04:19:50;96404.56;;;9.90;80.04
47556;BME280;33291;46.222;26.460;2023-05-23T04:22:16;96408.41;;;9.96;79.89
47556;BME280;33291;46.222;26.460;2023-05-23T04:24:42;96401.28;;;9.98;79.73
47556;BME280;33291;46.222;26.460;2023-05-23T04:27:08;96393.44;;;10.08;79.53
47556;BME280;33291;46.222;26.460;2023-05-23T04:29:34;96399.63;;;10.17;79.25
47556;BME280;33291;46.222;26.460;2023-05-23T04:32:01;96403.31;;;10.24;79.33
47556;BME280;33291;46.222;26.460;2023-05-23T04:34:26;96404.25;;;10.32;78.91
47556;BME280;33291;46.222;26.460;2023-05-23T04:36:52;96391.81;;;10.36;78.77
47556;BME280;33291;46.222;26.460;2023-05-23T04:39:18;96388.50;;;10.44;78.79
47556;BME280;33291;46.222;26.460;2023-05-23T04:41:44;96389.16;;;10.56;78.70
47556;BME280;33291;46.222;26.460;2023-05-23T04:44:11;96388.59;;;10.62;78.43
47556;BME280;33291;46.222;26.460;2023-05-23T04:46:36;96379.84;;;10.63;78.65
47556;BME280;33291;46.222;26.460;2023-05-23T04:49:09;96376.22;;;10.74;78.47
47556;BME280;33291;46.222;26.460;2023-05-23T04:51:34;96373.84;;;10.80;78.41
47556;BME280;33291;46.222;26.460;2023-05-23T04:54:01;96380.53;;;10.93;77.84
47556;BME280;33291;46.222;26.460;2023-05-23T04:56:26;96369.38;;;11.00;77.55
47556;BME280;33291;46.222;26.460;2023-05-23T04:58:53;96374.56;;;11.10;77.38
47556;BME280;33291;46.222;26.460;2023-05-23T05:01:18;96382.72;;;11.25;76.91
47556;BME280;33291;46.222;26.460;2023-05-23T05:03:44;96366.63;;;11.30;76.65
47556;BME280;33291;46.222;26.460;2023-05-23T05:06:09;96363.94;;;11.40;76.37
47556;BME280;33291;46.222;26.460;2023-05-23T05:08:35;96363.50;;;11.44;76.18
47556;BME280;33291;46.222;26.460;2023-05-23T05:11:01;96367.97;;;11.52;76.53
47556;BME280;33291;46.222;26.460;2023-05-23T05:13:26;96377.38;;;11.63;76.13
47556;BME280;33291;46.222;26.460;2023-05-23T05:15:52;96373.22;;;11.70;75.50
47556;BME280;33291;46.222;26.460;2023-05-23T05:18:17;96365.75;;;11.75;75.38
47556;BME280;33291;46.222;26.460;2023-05-23T05:20:43;96365.53;;;11.86;75.08
47556;BME280;33291;46.222;26.460;2023-05-23T05:23:08;96368.63;;;12.00;75.08
47556;BME280;33291;46.222;26.460;2023-05-23T05:25:35;96370.19;;;12.11;74.65
47556;BME280;33291;46.222;26.460;2023-05-23T05:28:02;96373.72;;;12.27;74.50
47556;BME280;33291;46.222;26.460;2023-05-23T05:30:30;96374.47;;;12.38;74.26
47556;BME280;33291;46.222;26.460;2023-05-23T05:33:00;96367.03;;;12.51;74.38
47556;BME280;33291;46.222;26.460;2023-05-23T05:35:26;96369.88;;;12.66;74.40
47556;BME280;33291;46.222;26.460;2023-05-23T05:37:52;96370.91;;;12.73;73.69
47556;BME280;33291;46.222;26.460;2023-05-23T05:40:17;96368.53;;;12.88;73.39
47556;BME280;33291;46.222;26.460;2023-05-23T05:42:43;96375.28;;;12.99;73.05
47556;BME280;33291;46.222;26.460;2023-05-23T05:45:08;96371.56;;;13.10;72.96
47556;BME280;33291;46.222;26.460;2023-05-23T05:47:35;96375.19;;;13.25;72.42
47556;BME280;33291;46.222;26.460;2023-05-23T05:50:06;96376.78;;;13.44;72.23
47556;BME280;33291;46.222;26.460;2023-05-23T05:52:33;96366.50;;;13.59;72.00
47556;BME280;33291;46.222;26.460;2023-05-23T05:55:06;96370.78;;;13.77;71.37
47556;BME280;33291;46.222;26.460;2023-05-23T05:57:32;96366.53;;;13.92;70.94
47556;BME280;33291;46.222;26.460;2023-05-23T05:59:57;96357.56;;;14.03;70.82
47556;BME280;33291;46.222;26.460;2023-05-23T06:02:23;96370.78;;;14.18;70.56
47556;BME280;33291;46.222;26.460;2023-05-23T06:04:48;96365.06;;;14.31;70.00
47556;BME280;33291;46.222;26.460;2023-05-23T06:07:14;96362.59;;;14.46;69.95
47556;BME280;33291;46.222;26.460;2023-05-23T06:09:39;96355.72;;;14.61;69.79
47556;BME280;33291;46.222;26.460;2023-05-23T06:12:05;96370.22;;;14.80;69.51
47556;BME280;33291;46.222;26.460;2023-05-23T06:14:30;96356.75;;;14.91;69.30
47556;BME280;33291;46.222;26.460;2023-05-23T06:16:56;96352.94;;;15.02;68.82
47556;BME280;33291;46.222;26.460;2023-05-23T06:19:21;96344.03;;;15.20;67.60
47556;BME280;33291;46.222;26.460;2023-05-23T06:21:47;96343.47;;;15.33;66.93
47556;BME280;33291;46.222;26.460;2023-05-23T06:24:13;96350.41;;;15.49;66.59
47556;BME280;33291;46.222;26.460;2023-05-23T06:26:38;96351.31;;;15.64;65.52
47556;BME280;33291;46.222;26.460;2023-05-23T06:29:03;96347.00;;;15.71;65.07
47556;BME280;33291;46.222;26.460;2023-05-23T06:31:29;96349.50;;;15.96;62.72
47556;BME280;33291;46.222;26.460;2023-05-23T06:33:54;96348.72;;;16.10;61.78
47556;BME280;33291;46.222;26.460;2023-05-23T06:36:20;96342.03;;;16.23;59.50
47556;BME280;33291;46.222;26.460;2023-05-23T06:38:46;96342.19;;;16.44;56.18
47556;BME280;33291;46.222;26.460;2023-05-23T06:41:12;96340.72;;;16.57;55.47
47556;BME280;33291;46.222;26.460;2023-05-23T06:43:37;96340.53;;;16.73;55.38
47556;BME280;33291;46.222;26.460;2023-05-23T06:46:03;96333.84;;;16.85;55.74
47556;BME280;33291;46.222;26.460;2023-05-23T06:48:29;96329.78;;;16.98;55.68
47556;BME280;33291;46.222;26.460;2023-05-23T06:50:54;96327.75;;;17.15;54.61
47556;BME280;33291;46.222;26.460;2023-05-23T06:53:20;96324.19;;;17.22;53.99
47556;BME280;33291;46.222;26.460;2023-05-23T06:55:45;96332.06;;;17.37;53.15
47556;BME280;33291;46.222;26.460;2023-05-23T06:58:11;96320.59;;;17.45;52.93
47556;BME280;33291;46.222;26.460;2023-05-23T07:00:36;96324.56;;;17.56;52.90
47556;BME280;33291;46.222;26.460;2023-05-23T07:03:02;96319.25;;;17.71;53.30
47556;BME280;33291;46.222;26.460;2023-05-23T07:05:28;96320.25;;;17.91;52.38
47556;BME280;33291;46.222;26.460;2023-05-23T07:07:54;96315.28;;;18.03;52.71
47556;BME280;33291;46.222;26.460;2023-05-23T07:10:20;96309.94;;;18.18;52.95
47556;BME280;33291;46.222;26.460;2023-05-23T07:12:46;96315.94;;;18.34;50.62
47556;BME280;33291;46.222;26.460;2023-05-23T07:15:11;96307.91;;;18.49;49.36
47556;BME280;33291;46.222;26.460;2023-05-23T07:17:39;96306.34;;;18.54;46.89
47556;BME280;33291;46.222;26.460;2023-05-23T07:20:05;96308.44;;;18.65;48.43
47556;BME280;33291;46.222;26.460;2023-05-23T07:22:31;96297.16;;;18.78;47.73
47556;BME280;33291;46.222;26.460;2023-05-23T07:24:56;96297.41;;;18.90;47.41
47556;BME280;33291;46.222;26.460;2023-05-23T07:27:22;96298.72;;;19.08;46.17
47556;BME280;33291;46.222;26.460;2023-05-23T07:29:47;96301.75;;;19.11;45.97
47556;BME280;33291;46.222;26.460;2023-05-23T07:32:13;96292.03;;;19.12;44.71
47556;BME280;33291;46.222;26.460;2023-05-23T07:34:38;96297.38;;;19.32;45.13
47556;BME280;33291;46.222;26.460;2023-05-23T07:37:04;96289.47;;;19.39;44.32
47556;BME280;33291;46.222;26.460;2023-05-23T07:39:29;96295.78;;;19.44;43.86
47556;BME280;33291;46.222;26.460;2023-05-23T07:41:55;96299.47;;;19.50;43.31
47556;BME280;33291;46.222;26.460;2023-05-23T07:44:20;96297.03;;;19.68;42.35
47556;BME280;33291;46.222;26.460;2023-05-23T07:46:46;96298.50;;;19.78;42.17
47556;BME280;33291;46.222;26.460;2023-05-23T07:49:11;96293.63;;;19.81;42.35
47556;BME280;33291;46.222;26.460;2023-05-23T07:51:37;96293.41;;;19.76;42.72
47556;BME280;33291;46.222;26.460;2023-05-23T07:54:02;96299.94;;;19.80;43.07
47556;BME280;33291;46.222;26.460;2023-05-23T07:56:28;96298.72;;;19.83;42.68
47556;BME280;33291;46.222;26.460;2023-05-23T07:58:53;96294.66;;;19.94;42.27
47556;BME280;33291;46.222;26.460;2023-05-23T08:01:19;96298.72;;;20.10;42.57
47556;BME280;33291;46.222;26.460;2023-05-23T08:03:44;96290.19;;;20.21;40.95
47556;BME280;33291;46.222;26.460;2023-05-23T08:06:10;96284.88;;;20.28;41.15
47556;BME280;33291;46.222;26.460;2023-05-23T08:08:35;96294.84;;;20.46;39.88
47556;BME280;33291;46.222;26.460;2023-05-23T08:11:02;96296.66;;;20.52;39.66
47556;BME280;33291;46.222;26.460;2023-05-23T08:13:28;96301.75;;;20.40;40.23
47556;BME280;33291;46.222;26.460;2023-05-23T08:15:54;96287.72;;;20.26;40.43
47556;BME280;33291;46.222;26.460;2023-05-23T08:18:19;96296.47;;;20.40;40.38
47556;BME280;33291;46.222;26.460;2023-05-23T08:20:45;96286.88;;;20.39;40.04
47556;BME280;33291;46.222;26.460;2023-05-23T08:23:11;96296.41;;;20.60;39.75
47556;BME280;33291;46.222;26.460;2023-05-23T08:25:37;96293.78;;;20.60;39.88
47556;BME280;33291;46.222;26.460;2023-05-23T08:28:02;96297.84;;;20.69;40.94
47556;BME280;33291;46.222;26.460;2023-05-23T08:30:28;96286.47;;;20.55;41.07
47556;BME280;33291;46.222;26.460;2023-05-23T08:32:55;96286.91;;;20.46;41.90
47556;BME280;33291;46.222;26.460;2023-05-23T08:35:21;96298.09;;;20.41;42.27
47556;BME280;33291;46.222;26.460;2023-05-23T08:37:47;96296.69;;;20.32;43.07
47556;BME280;33291;46.222;26.460;2023-05-23T08:40:19;96285.69;;;20.41;43.06
47556;BME280;33291;46.222;26.460;2023-05-23T08:42:46;96287.28;;;20.49;42.87
47556;BME280;33291;46.222;26.460;2023-05-23T08:45:12;96298.69;;;20.56;41.94
47556;BME280;33291;46.222;26.460;2023-05-23T08:47:41;96275.50;;;20.38;40.03
47556;BME280;33291;46.222;26.460;2023-05-23T08:50:09;96294.63;;;20.40;40.54
47556;BME280;33291;46.222;26.460;2023-05-23T08:52:36;96295.25;;;20.36;41.41
47556;BME280;33291;46.222;26.460;2023-05-23T08:55:08;96295.69;;;20.19;42.42
47556;BME280;33291;46.222;26.460;2023-05-23T08:57:35;96296.09;;;20.10;42.66
47556;BME280;33291;46.222;26.460;2023-05-23T09:00:02;96297.50;;;19.99;43.05
47556;BME280;33291;46.222;26.460;2023-05-23T09:02:34;96283.69;;;19.83;43.53
47556;BME280;33291;46.222;26.460;2023-05-23T09:05:00;96298.91;;;19.95;44.24
47556;BME280;33291;46.222;26.460;2023-05-23T09:07:27;96288.97;;;20.03;43.79
47556;BME280;33291;46.222;26.460;2023-05-23T09:09:53;96286.50;;;20.22;43.66
47556;BME280;33291;46.222;26.460;2023-05-23T09:12:19;96284.88;;;20.34;43.17
47556;BME280;33291;46.222;26.460;2023-05-23T09:14:46;96260.03;;;20.42;42.22
47556;BME280;33291;46.222;26.460;2023-05-23T09:17:17;96272.44;;;20.68;41.47
47556;BME280;33291;46.222;26.460;2023-05-23T09:19:43;96279.91;;;20.85;41.78
47556;BME280;33291;46.222;26.460;2023-05-23T09:22:08;96279.47;;;20.94;39.44
47556;BME280;33291;46.222;26.460;2023-05-23T09:24:35;96280.41;;;21.07;38.84
47556;BME280;33291;46.222;26.460;2023-05-23T09:27:01;96270.03;;;21.12;38.32
47556;BME280;33291;46.222;26.460;2023-05-23T09:29:27;96280.31;;;21.27;37.02
47556;BME280;33291;46.222;26.460;2023-05-23T09:31:59;96276.41;;;21.36;36.81
47556;BME280;33291;46.222;26.460;2023-05-23T09:34:24;96280.44;;;21.45;35.69
47556;BME280;33291;46.222;26.460;2023-05-23T09:36:53;96276.34;;;21.50;35.33
47556;BME280;33291;46.222;26.460;2023-05-23T09:39:19;96274.09;;;21.53;35.39
47556;BME280;33291;46.222;26.460;2023-05-23T09:41:47;96273.84;;;21.61;34.66
47556;BME280;33291;46.222;26.460;2023-05-23T09:44:13;96275.03;;;21.65;35.65
47556;BME280;33291;46.222;26.460;2023-05-23T09:46:38;96274.34;;;21.77;35.23
47556;BME280;33291;46.222;26.460;2023-05-23T09:49:15;96245.03;;;21.72;35.25
47556;BME280;33291;46.222;26.460;2023-05-23T09:51:42;96268.16;;;21.83;35.74
47556;BME280;33291;46.222;26.460;2023-05-23T09:54:07;96258.63;;;21.82;35.14
47556;BME280;33291;46.222;26.460;2023-05-23T09:56:35;96267.53;;;21.88;34.76
47556;BME280;33291;46.222;26.460;2023-05-23T09:59:04;96268.34;;;21.88;34.95
47556;BME280;33291;46.222;26.460;2023-05-23T10:01:33;96262.19;;;21.94;35.26
47556;BME280;33291;46.222;26.460;2023-05-23T10:03:59;96258.88;;;21.99;35.35
47556;BME280;33291;46.222;26.460;2023-05-23T10:06:29;96267.59;;;22.06;34.76
47556;BME280;33291;46.222;26.460;2023-05-23T10:09:01;96242.41;;;22.15;33.48
47556;BME280;33291;46.222;26.460;2023-05-23T10:14:06;96249.88;;;22.25;32.58
47556;BME280;33291;46.222;26.460;2023-05-23T10:16:39;96252.88;;;22.29;33.29
47556;BME280;33291;46.222;26.460;2023-05-23T10:19:33;96241.69;;;22.27;32.78
47556;BME280;33291;46.222;26.460;2023-05-23T10:22:03;96247.00;;;22.27;33.78
47556;BME280;33291;46.222;26.460;2023-05-23T10:24:31;96231.19;;;22.13;33.58
47556;BME280;33291;46.222;26.460;2023-05-23T10:26:58;96230.19;;;22.14;33.50
47556;BME280;33291;46.222;26.460;2023-05-23T10:29:24;96230.63;;;22.11;34.14
47556;BME280;33291;46.222;26.460;2023-05-23T10:31:51;96231.94;;;22.02;34.17
47556;BME280;33291;46.222;26.460;2023-05-23T10:34:40;96233.97;;;22.00;33.41
47556;BME280;33291;46.222;26.460;2023-05-23T10:37:10;96221.75;;;21.99;33.79
47556;BME280;33291;46.222;26.460;2023-05-23T10:40:03;96220.53;;;22.02;33.66
47556;BME280;33291;46.222;26.460;2023-05-23T10:42:41;96228.41;;;22.08;32.98
47556;BME280;33291;46.222;26.460;2023-05-23T10:45:22;96209.63;;;22.10;33.46
47556;BME280;33291;46.222;26.460;2023-05-23T10:47:50;96216.56;;;22.29;33.37
47556;BME280;33291;46.222;26.460;2023-05-23T10:50:32;96220.22;;;22.35;32.68
47556;BME280;33291;46.222;26.460;2023-05-23T10:53:02;96212.72;;;22.32;33.19
47556;BME280;33291;46.222;26.460;2023-05-23T10:55:33;96211.59;;;22.40;33.85
47556;BME280;33291;46.222;26.460;2023-05-23T10:58:16;96207.84;;;22.47;33.74
47556;BME280;33291;46.222;26.460;2023-05-23T11:00:55;96206.22;;;22.46;33.34
47556;BME280;33291;46.222;26.460;2023-05-23T11:09:04;96192.94;;;22.65;32.68
47556;BME280;33291;46.222;26.460;2023-05-23T11:19:37;96194.19;;;22.81;32.27
47556;BME280;33291;46.222;26.460;2023-05-23T11:22:07;96183.78;;;22.79;32.60
47556;BME280;33291;46.222;26.460;2023-05-23T11:24:52;96183.34;;;22.82;32.14
47556;BME280;33291;46.222;26.460;2023-05-23T11:27:51;96182.66;;;22.87;32.46
47556;BME280;33291;46.222;26.460;2023-05-23T11:30:16;96192.00;;;22.89;32.20
47556;BME280;33291;46.222;26.460;2023-05-23T11:32:51;96184.41;;;22.93;32.42
47556;BME280;33291;46.222;26.460;2023-05-23T11:35:18;96187.19;;;22.98;32.26
47556;BME280;33291;46.222;26.460;2023-05-23T11:37:45;96182.44;;;22.88;32.59
47556;BME280;33291;46.222;26.460;2023-05-23T11:40:34;96181.47;;;22.83;32.22
47556;BME280;33291;46.222;26.460;2023-05-23T11:43:02;96178.03;;;22.82;32.08
47556;BME280;33291;46.222;26.460;2023-05-23T11:45:29;96184.69;;;22.73;33.24
47556;BME280;33291;46.222;26.460;2023-05-23T11:47:56;96189.44;;;22.83;34.38
47556;BME280;33291;46.222;26.460;2023-05-23T11:50:21;96181.97;;;22.92;32.71
47556;BME280;33291;46.222;26.460;2023-05-23T11:52:49;96175.19;;;22.96;32.68
47556;BME280;33291;46.222;26.460;2023-05-23T11:55:21;96171.47;;;22.97;31.62
47556;BME280;33291;46.222;26.460;2023-05-23T11:57:48;96161.34;;;23.05;31.92
47556;BME280;33291;46.222;26.460;2023-05-23T12:00:14;96167.19;;;23.14;32.45
47556;BME280;33291;46.222;26.460;2023-05-23T12:02:41;96163.63;;;23.20;32.12
47556;BME280;33291;46.222;26.460;2023-05-23T12:05:11;96151.94;;;23.21;32.69
47556;BME280;33291;46.222;26.460;2023-05-23T12:10:08;96154.88;;;23.32;32.60
47556;BME280;33291;46.222;26.460;2023-05-23T12:12:34;96155.91;;;23.31;32.63
47556;BME280;33291;46.222;26.460;2023-05-23T12:14:59;96156.84;;;23.24;32.62
47556;BME280;33291;46.222;26.460;2023-05-23T12:17:25;96156.22;;;23.22;32.55
47556;BME280;33291;46.222;26.460;2023-05-23T12:19:51;96157.63;;;23.25;32.41
47556;BME280;33291;46.222;26.460;2023-05-23T12:22:27;96158.88;;;23.22;32.43
47556;BME280;33291;46.222;26.460;2023-05-23T12:24:53;96160.75;;;23.22;32.49
47556;BME280;33291;46.222;26.460;2023-05-23T12:27:26;96160.75;;;23.22;32.32
47556;BME280;33291;46.222;26.460;2023-05-23T12:29:54;96161.53;;;23.22;32.59
47556;BME280;33291;46.222;26.460;2023-05-23T12:32:28;96154.88;;;23.32;32.27
47556;BME280;33291;46.222;26.460;2023-05-23T12:34:54;96146.66;;;23.33;32.39
47556;BME280;33291;46.222;26.460;2023-05-23T12:37:20;96147.59;;;23.39;31.92
47556;BME280;33291;46.222;26.460;2023-05-23T12:39:46;96147.38;;;23.40;32.15
47556;BME280;33291;46.222;26.460;2023-05-23T12:42:11;96139.28;;;23.47;32.59
47556;BME280;33291;46.222;26.460;2023-05-23T12:44:40;96140.22;;;23.53;32.54
47556;BME280;33291;46.222;26.460;2023-05-23T12:47:06;96144.16;;;23.62;31.68
47556;BME280;33291;46.222;26.460;2023-05-23T12:49:31;96140.69;;;23.62;31.64
47556;BME280;33291;46.222;26.460;2023-05-23T12:51:57;96147.75;;;23.68;31.67
47556;BME280;33291;46.222;26.460;2023-05-23T12:54:22;96146.13;;;23.67;31.42
47556;BME280;33291;46.222;26.460;2023-05-23T12:56:48;96140.81;;;23.67;31.56
47556;BME280;33291;46.222;26.460;2023-05-23T12:59:14;96154.91;;;23.55;32.36
47556;BME280;33291;46.222;26.460;2023-05-23T13:01:39;96118.84;;;23.36;31.47
47556;BME280;33291;46.222;26.460;2023-05-23T13:04:05;96134.19;;;23.46;31.28
47556;BME280;33291;46.222;26.460;2023-05-23T13:06:30;96137.91;;;23.33;31.86
47556;BME280;33291;46.222;26.460;2023-05-23T13:08:57;96131.41;;;23.29;31.90
47556;BME280;33291;46.222;26.460;2023-05-23T13:11:23;96140.56;;;23.33;31.92
47556;BME280;33291;46.222;26.460;2023-05-23T13:13:49;96131.09;;;23.37;32.26
47556;BME280;33291;46.222;26.460;2023-05-23T13:16:16;96128.88;;;23.46;32.27
47556;BME280;33291;46.222;26.460;2023-05-23T13:18:42;96132.81;;;23.55;31.83